Time;durP1;ratioP1;P1;durP2;ratioP2;P2;SDS_P1;SDS_P2;PMS_P1;PMS_P2;Temp;Humidity;BMP_temperature;BMP_pressure;BME280_temperature;BME280_humidity;BME280_pressure;Samples;Min_cycle;Max_cycle;Signal;HPM_P1;HPM_P2
2022/05/10 00:01:38;;;;;;;9.77;8.77;;;14.20;73.60;;;13.12;77.21;96604.50;4962752;28;20121;-65
2022/05/10 00:04:05;;;;;;;10.38;8.88;;;14.20;73.40;;;13.11;77.12;96604.69;4967850;28;20100;-66
2022/05/10 00:06:41;;;;;;;9.45;8.43;;;14.10;73.80;;;13.07;77.76;96598.16;4942152;28;20125;-65
2022/05/10 00:09:08;;;;;;;10.52;9.50;;;14.10;74.00;;;13.01;77.03;96593.66;4944446;28;20084;-66
2022/05/10 00:11:33;;;;;;;10.35;8.77;;;14.10;74.00;;;12.99;77.78;96598.31;4965971;28;20033;-66
2022/05/10 00:13:59;;;;;;;9.82;8.82;;;14.10;74.00;;;12.95;77.53;96594.44;4974730;28;20049;-65
2022/05/10 00:16:25;;;;;;;9.80;8.80;;;14.10;74.00;;;12.94;77.54;96598.06;4989898;28;20037;-65
2022/05/10 00:18:51;;;;;;;10.77;9.35;;;13.90;73.90;;;12.87;77.53;96590.09;4958898;28;20045;-65
2022/05/10 00:21:20;;;;;;;11.35;10.13;;;13.80;74.10;;;12.84;77.33;96595.75;4958974;28;20149;-66
2022/05/10 00:23:46;;;;;;;10.82;9.80;;;13.80;74.30;;;12.80;77.65;96597.16;4973608;28;20076;-65
2022/05/10 00:26:12;;;;;;;10.68;9.63;;;13.80;74.30;;;12.72;78.13;96584.09;4989811;28;20065;-66
2022/05/10 00:28:37;;;;;;;11.18;9.18;;;13.80;74.10;;;12.75;77.89;96589.81;4990465;28;20056;-65
2022/05/10 00:31:03;;;;;;;10.98;9.88;;;13.80;74.20;;;12.71;78.24;96593.00;4974466;28;20128;-65
2022/05/10 00:33:30;;;;;;;11.15;10.07;;;13.70;74.50;;;12.67;77.67;96592.56;4957545;28;20046;-66
2022/05/10 00:35:56;;;;;;;13.10;10.18;;;13.60;75.00;;;12.61;78.50;96588.03;4973670;28;20044;-66
2022/05/10 00:38:33;;;;;;;12.77;11.18;;;13.60;75.50;;;12.59;79.64;96587.41;4996236;28;20544;-65
2022/05/10 00:41:18;;;;;;;12.63;11.27;;;13.60;75.70;;;12.56;80.13;96585.97;4957944;28;20761;-65
2022/05/10 00:43:46;;;;;;;12.60;11.50;;;13.50;76.00;;;12.53;79.32;96591.63;4990555;28;20030;-65
2022/05/10 00:46:17;;;;;;;12.48;11.35;;;13.50;76.30;;;12.52;80.04;96583.91;4973326;28;20501;-65
2022/05/10 00:48:46;;;;;;;13.93;11.95;;;13.50;76.30;;;12.50;79.52;96578.00;4989667;28;20362;-65
2022/05/10 00:52:00;;;;;;;12.68;11.43;;;13.50;76.40;;;12.48;80.76;96566.81;4990205;28;20030;-66
2022/05/10 00:54:42;;;;;;;12.15;10.95;;;13.60;76.20;;;12.44;80.49;96565.53;4993567;28;20046;-64
2022/05/10 00:57:30;;;;;;;12.45;11.13;;;13.40;76.10;;;12.41;80.49;96563.28;4985868;28;20080;-64
2022/05/10 01:00:23;;;;;;;12.07;10.98;;;13.40;76.00;;;12.41;80.76;96571.22;5021891;28;20073;-65
2022/05/10 01:03:07;;;;;;;12.15;10.80;;;13.40;75.90;;;12.36;79.44;96568.31;4973579;28;20500;-64
2022/05/10 01:05:54;;;;;;;14.13;11.98;;;13.40;75.90;;;12.35;81.56;96566.69;5021029;28;20075;-66
2022/05/10 01:09:06;;;;;;;12.68;11.38;;;13.40;76.00;;;12.31;80.29;96563.63;5003594;28;20029;-65
2022/05/10 01:11:56;;;;;;;12.48;11.18;;;13.30;76.30;;;12.30;81.03;96564.63;4926740;29;20046;-66
2022/05/10 01:14:46;;;;;;;11.20;10.18;;;13.40;76.10;;;12.27;80.71;96565.81;4914914;29;20534;-66
2022/05/10 01:17:12;;;;;;;11.82;10.63;;;13.40;75.60;;;12.20;79.07;96564.91;4960617;28;20069;-66
2022/05/10 01:19:39;;;;;;;12.93;11.63;;;13.30;75.60;;;12.21;79.80;96563.09;4956460;28;20038;-65
2022/05/10 01:22:26;;;;;;;13.20;11.80;;;13.30;76.00;;;12.21;81.23;96563.91;4937605;28;20125;-65
2022/05/10 01:25:15;;;;;;;13.32;11.80;;;13.30;76.10;;;12.18;80.88;96566.94;5005747;28;20057;-65
2022/05/10 01:27:46;;;;;;;13.25;11.93;;;13.20;75.90;;;12.11;80.15;96565.22;4990608;28;20038;-66
2022/05/10 01:30:12;;;;;;;12.18;10.85;;;13.10;76.00;;;12.05;79.85;96560.72;4989417;28;20034;-65
2022/05/10 01:36:30;;;;;;;13.38;11.95;;;13.10;76.30;;;11.97;81.43;96559.00;4980466;28;20418;-65
2022/05/10 01:39:23;;;;;;;13.52;12.13;;;13.10;76.40;;;11.92;81.44;96562.19;4998586;28;20120;-65
2022/05/10 01:42:05;;;;;;;13.00;11.63;;;13.10;76.40;;;11.90;81.22;96558.09;4991437;28;20037;-66
2022/05/10 01:45:21;;;;;;;13.18;11.85;;;12.90;76.30;;;11.84;81.58;96566.75;4973175;28;20644;-65
2022/05/10 01:47:58;;;;;;;12.93;11.48;;;12.90;76.40;;;11.80;81.04;96563.69;4937250;28;20158;-65
2022/05/10 01:50:40;;;;;;;13.32;11.93;;;13.00;76.30;;;11.79;80.33;96569.97;4957898;28;20109;-65
2022/05/10 01:53:33;;;;;;;14.63;11.95;;;12.90;76.30;;;11.76;81.50;96569.47;4981973;28;20030;-65
2022/05/10 01:56:09;;;;;;;12.93;11.73;;;12.90;76.40;;;11.74;81.87;96568.81;4937210;28;20104;-64
2022/05/10 01:58:38;;;;;;;15.10;12.55;;;12.90;76.50;;;11.71;81.25;96566.56;4937664;28;20709;-65
2022/05/10 02:01:30;;;;;;;13.68;12.27;;;12.90;76.40;;;11.72;81.79;96568.19;4969008;28;20129;-65
2022/05/10 02:04:00;;;;;;;14.13;12.73;;;12.80;76.60;;;11.66;81.10;96567.94;4985617;28;20038;-65
2022/05/10 02:07:11;;;;;;;14.10;12.70;;;12.80;77.10;;;11.64;83.18;96569.94;4958166;28;20038;-66
2022/05/10 02:09:56;;;;;;;14.80;13.20;;;12.70;77.40;;;11.62;82.39;96571.94;4955850;28;20120;-66
2022/05/10 02:13:19;;;;;;;15.40;13.75;;;12.70;77.40;;;11.61;83.72;96565.03;4994828;28;20025;-65
2022/05/10 02:15:54;;;;;;;14.90;13.50;;;12.80;77.50;;;11.60;82.33;96570.50;4965030;28;20104;-66
2022/05/10 02:18:45;;;;;;;15.95;14.15;;;12.80;77.40;;;11.55;82.82;96565.78;4971453;28;20071;-66
2022/05/10 02:21:18;;;;;;;14.90;13.60;;;12.70;77.10;;;11.50;81.94;96565.50;4972727;28;20141;-66
2022/05/10 02:24:04;;;;;;;15.85;13.85;;;12.70;77.00;;;11.46;82.68;96566.88;4972175;28;20117;-66
2022/05/10 02:26:42;;;;;;;15.13;13.52;;;12.60;77.10;;;11.43;82.29;96571.69;4971130;28;20048;-66
2022/05/10 02:29:26;;;;;;;14.27;12.88;;;12.60;76.90;;;11.36;82.83;96566.34;4973628;28;20033;-66
2022/05/10 02:34:48;;;;;;;14.00;12.55;;;12.50;77.00;;;11.25;81.98;96564.16;4978631;28;20056;-65
2022/05/10 02:37:14;;;;;;;14.70;13.20;;;12.50;77.00;;;11.23;81.37;96566.16;4955227;28;20129;-65
2022/05/10 02:39:39;;;;;;;14.10;12.70;;;12.50;77.00;;;11.18;81.58;96558.78;4954769;28;20041;-66
2022/05/10 02:42:09;;;;;;;13.73;12.43;;;12.40;77.10;;;11.17;82.66;96567.69;4955610;28;20430;-65
2022/05/10 02:44:36;;;;;;;14.10;12.70;;;12.40;77.30;;;11.15;82.35;96563.59;4954556;28;20033;-66
2022/05/10 02:47:05;;;;;;;77.03;61.22;;;12.40;77.40;;;11.17;82.30;96569.50;4971434;28;20130;-65
2022/05/10 02:49:31;;;;;;;50.83;45.25;;;12.40;77.60;;;11.15;82.80;96563.59;4970803;28;20417;-65
2022/05/10 02:51:57;;;;;;;25.80;22.25;;;12.40;77.70;;;11.14;82.55;96567.25;4971495;28;20530;-64
2022/05/10 02:54:23;;;;;;;20.88;18.25;;;12.40;77.50;;;11.14;82.18;96567.25;4970767;28;20073;-66
2022/05/10 02:56:49;;;;;;;19.50;16.05;;;12.40;77.50;;;11.10;82.69;96565.97;4971311;28;20029;-65
2022/05/10 02:59:21;;;;;;;19.00;16.88;;;12.30;77.20;;;11.08;83.14;96566.13;4973022;28;20026;-65
2022/05/10 03:02:18;;;;;;;18.65;15.20;;;12.30;77.30;;;11.05;83.43;96569.94;4979227;28;20137;-65
2022/05/10 03:04:49;;;;;;;17.45;15.65;;;12.30;77.40;;;11.02;82.42;96572.13;5002965;28;20109;-66
2022/05/10 03:07:15;;;;;;;17.75;15.52;;;12.20;77.60;;;10.99;82.49;96568.03;4964831;28;20030;-66
2022/05/10 03:09:40;;;;;;;18.67;16.77;;;12.10;77.80;;;11.00;82.55;96574.13;4968116;28;20037;-65
2022/05/10 03:12:07;;;;;;;18.48;16.58;;;12.20;77.90;;;10.98;83.29;96571.66;4987146;28;20568;-65
2022/05/10 03:14:33;;;;;;;18.63;16.60;;;12.20;78.00;;;10.97;83.51;96563.94;4966222;28;20605;-65
2022/05/10 03:16:58;;;;;;;18.42;16.65;;;12.20;78.20;;;10.95;84.36;96569.41;4987260;28;20076;-65
2022/05/10 03:19:24;;;;;;;18.10;16.17;;;12.20;78.50;;;10.91;84.24;96573.38;4970709;28;20121;-66
2022/05/10 03:21:50;;;;;;;18.70;16.80;;;12.10;78.60;;;10.89;84.05;96575.38;4971366;28;20113;-65
2022/05/10 03:24:16;;;;;;;40.25;35.88;;;12.20;78.90;;;10.86;84.27;96567.81;4954260;28;20076;-66
2022/05/10 03:26:46;;;;;;;38.53;34.47;;;12.10;79.20;;;10.84;84.98;96572.44;4970997;28;20463;-65
2022/05/10 03:29:12;;;;;;;29.83;26.90;;;12.10;79.40;;;10.84;85.13;96577.72;4965579;28;20050;-65
2022/05/10 03:31:38;;;;;;;21.30;19.08;;;12.10;79.40;;;10.83;84.81;96576.06;4954232;28;20119;-65
2022/05/10 03:36:48;;;;;;;22.98;20.77;;;12.10;78.80;;;10.81;84.40;96580.69;4996237;28;20589;-66
2022/05/10 03:39:14;;;;;;;22.88;20.42;;;12.10;78.80;;;10.79;84.64;96569.53;4990911;28;20133;-65
2022/05/10 03:41:39;;;;;;;22.45;20.10;;;12.10;78.60;;;10.77;84.91;96568.09;4973518;28;20124;-65
2022/05/10 03:44:06;;;;;;;21.95;19.75;;;12.00;78.60;;;10.74;84.10;96577.16;4982404;28;20450;-65
2022/05/10 03:46:32;;;;;;;21.25;18.42;;;12.00;78.90;;;10.72;84.40;96573.88;4973386;28;20141;-66
2022/05/10 03:48:58;;;;;;;19.30;17.52;;;12.00;78.80;;;10.70;85.01;96574.06;4973959;28;20195;-66
2022/05/10 03:51:24;;;;;;;19.23;17.35;;;12.00;78.70;;;10.68;84.59;96577.88;4973369;28;20526;-65
2022/05/10 03:53:50;;;;;;;20.52;17.75;;;12.00;78.50;;;10.67;85.27;96573.63;4973890;28;20160;-66
2022/05/10 03:56:15;;;;;;;24.25;16.75;;;12.00;78.60;;;10.67;84.98;96573.63;4988880;28;20045;-65
2022/05/10 03:58:41;;;;;;;19.17;17.17;;;12.00;78.60;;;10.68;85.14;96578.69;4973741;28;20046;-65
2022/05/10 04:01:07;;;;;;;20.00;18.15;;;12.10;78.70;;;10.69;85.46;96569.00;4969408;28;20096;-65
2022/05/10 04:03:34;;;;;;;35.03;30.75;;;12.10;78.60;;;10.70;85.32;96575.88;4970376;28;20057;-65
2022/05/10 04:05:59;;;;;;;28.92;25.70;;;12.10;78.90;;;10.69;85.39;96564.53;4956549;28;20427;-65
2022/05/10 04:08:27;;;;;;;23.10;20.92;;;12.00;78.70;;;10.67;85.68;96569.16;4957297;28;20377;-65
2022/05/10 04:10:53;;;;;;;23.98;21.77;;;12.10;79.00;;;10.68;85.90;96572.63;4972603;28;20030;-65
2022/05/10 04:13:19;;;;;;;24.02;21.42;;;12.00;79.10;;;10.68;85.68;96567.34;4989453;28;20034;-66
2022/05/10 04:15:45;;;;;;;22.70;20.30;;;12.10;79.30;;;10.70;85.55;96560.09;4972048;28;20397;-65
2022/05/10 04:18:10;;;;;;;23.67;21.50;;;12.10;79.30;;;10.71;86.53;96567.00;4989423;28;20451;-66
2022/05/10 04:20:36;;;;;;;23.85;21.45;;;12.10;79.80;;;10.72;85.96;96566.00;4973806;28;20056;-66
2022/05/10 04:23:02;;;;;;;23.33;21.08;;;12.10;79.80;;;10.75;86.72;96570.91;4989166;28;20502;-65
2022/05/10 04:25:28;;;;;;;22.95;20.63;;;12.10;79.90;;;10.77;86.74;96566.28;4987201;28;20107;-66
2022/05/10 04:27:54;;;;;;;22.85;20.52;;;12.20;80.10;;;10.79;87.34;96572.16;4989128;28;20128;-64
2022/05/10 04:30:21;;;;;;;22.38;20.05;;;12.20;79.90;;;10.79;87.59;96569.53;4971148;28;20034;-66
2022/05/10 04:32:47;;;;;;;22.65;20.35;;;12.20;80.20;;;10.83;88.21;96576.06;4973362;28;20065;-65
2022/05/10 04:35:12;;;;;;;22.35;20.08;;;12.30;80.20;;;10.83;87.11;96570.81;5006096;28;20533;-65
2022/05/10 04:37:38;;;;;;;21.83;19.83;;;12.20;80.20;;;10.84;87.57;96571.63;4988702;28;20505;-66
2022/05/10 04:42:50;;;;;;;21.95;19.75;;;12.30;80.10;;;10.87;87.47;96566.03;4999071;28;20115;-65
2022/05/10 04:45:16;;;;;;;21.80;19.63;;;12.30;80.20;;;10.91;88.85;96572.56;4972383;28;20058;-66
2022/05/10 04:47:42;;;;;;;24.25;21.38;;;12.30;80.20;;;10.93;87.68;96568.75;5006283;28;20180;-65
2022/05/10 04:50:08;;;;;;;24.65;22.10;;;12.40;80.10;;;10.97;88.39;96575.28;4973463;28;20030;-66
2022/05/10 04:52:34;;;;;;;29.65;22.58;;;12.40;80.50;;;11.01;88.08;96573.13;4988811;28;20647;-65
2022/05/10 04:55:00;;;;;;;27.83;23.77;;;12.50;80.50;;;11.03;88.45;96565.84;5004968;28;20045;-64
2022/05/10 04:57:26;;;;;;;25.45;22.83;;;12.50;80.50;;;11.04;89.58;96563.03;5005841;28;20022;-65
2022/05/10 04:59:52;;;;;;;23.95;21.45;;;12.50;80.60;;;11.05;89.93;96571.75;5005361;28;20442;-65
2022/05/10 05:02:18;;;;;;;23.52;21.00;;;12.50;80.60;;;11.09;89.72;96577.47;4989070;28;20089;-65
2022/05/10 05:04:43;;;;;;;23.83;21.35;;;12.60;80.60;;;11.12;89.93;96585.03;5005933;28;20042;-65
2022/05/10 05:07:09;;;;;;;29.52;21.65;;;12.60;80.70;;;11.16;90.06;96575.78;4989026;28;20053;-67
2022/05/10 05:09:35;;;;;;;31.88;27.63;;;12.70;80.60;;;11.21;89.92;96581.31;5002865;28;20053;-66
2022/05/10 05:12:01;;;;;;;28.00;24.35;;;12.80;80.60;;;11.27;89.71;96586.66;4970112;28;20022;-64
2022/05/10 05:14:27;;;;;;;26.83;21.85;;;13.00;80.40;;;11.36;89.96;96582.16;4986082;28;20085;-64
2022/05/10 05:16:54;;;;;;;22.90;20.10;;;13.00;80.20;;;11.43;90.88;96576.94;4969662;28;20062;-65
2022/05/10 05:19:20;;;;;;;21.63;18.42;;;13.10;79.90;;;11.51;90.73;96585.56;4969834;28;20031;-66
2022/05/10 05:21:46;;;;;;;21.70;18.60;;;13.20;79.60;;;11.57;90.29;96592.75;4953013;28;20442;-66
2022/05/10 05:24:12;;;;;;;21.83;18.45;;;13.20;79.60;;;11.65;90.54;96591.84;5005636;28;20065;-67
2022/05/10 05:26:38;;;;;;;20.38;17.90;;;13.40;79.60;;;11.71;90.63;96591.09;4988239;28;20935;-66
2022/05/10 05:29:04;;;;;;;21.10;18.35;;;13.50;79.40;;;11.81;90.00;96591.69;4988937;28;20617;-66
2022/05/10 05:31:30;;;;;;;20.35;17.02;;;13.60;79.20;;;11.89;90.17;96594.19;4971745;28;20034;-66
2022/05/10 05:33:56;;;;;;;18.40;16.08;;;13.70;78.60;;;12.00;89.83;96595.56;4988959;28;20526;-66
2022/05/10 05:36:22;;;;;;;17.30;15.77;;;13.80;78.40;;;12.06;89.81;96597.44;5004184;28;20081;-66
2022/05/10 05:38:50;;;;;;;17.90;16.02;;;14.00;78.30;;;12.17;89.94;96593.50;4971799;28;20077;-66
2022/05/10 05:41:17;;;;;;;17.80;16.08;;;14.10;77.70;;;12.29;89.43;96599.09;4989042;28;20096;-66
2022/05/10 05:43:43;;;;;;;16.92;15.23;;;14.20;76.90;;;12.35;88.64;96593.88;4987733;28;20747;-67
2022/05/10 05:46:09;;;;;;;17.73;15.82;;;14.30;76.20;;;12.45;87.81;96593.59;4987411;28;20109;-63
2022/05/10 05:48:34;;;;;;;17.25;15.65;;;14.40;76.20;;;12.52;87.67;96595.28;4987982;28;20546;-66
2022/05/10 05:51:00;;;;;;;18.02;14.77;;;14.60;75.60;;;12.65;87.15;96593.75;4987123;28;20457;-66
2022/05/10 05:53:26;;;;;;;16.13;14.52;;;14.70;74.90;;;12.74;87.37;96600.56;4994176;28;20045;-66
2022/05/10 05:55:53;;;;;;;16.45;14.85;;;14.80;74.50;;;12.82;86.54;96588.03;4986610;28;20072;-65
2022/05/10 05:58:19;;;;;;;16.95;13.57;;;14.90;74.00;;;12.94;86.47;96600.72;5004254;28;20045;-65
2022/05/10 06:00:45;;;;;;;15.23;13.77;;;15.10;73.80;;;13.07;85.39;96592.88;4981978;28;20038;-66
2022/05/10 06:03:11;;;;;;;15.02;13.52;;;15.20;73.00;;;13.20;85.38;96600.13;4981948;28;20034;-66
2022/05/10 06:05:36;;;;;;;15.70;14.10;;;15.50;72.80;;;13.32;85.13;96599.38;4995214;28;20039;-66
2022/05/10 06:08:03;;;;;;;15.10;13.43;;;15.60;72.50;;;13.51;85.83;96599.69;4994468;28;20113;-68
2022/05/10 06:10:30;;;;;;;15.07;13.23;;;15.90;72.10;;;13.67;84.49;96607.31;4986932;28;20054;-66
2022/05/10 06:13:00;;;;;;;15.13;13.63;;;16.20;71.20;;;13.85;84.36;96604.97;4955047;28;20145;-66
2022/05/10 06:15:26;;;;;;;;;;;16.40;70.30;;;13.99;83.30;96604.00;4987347;28;20125;-66
2022/05/10 06:17:52;;;;;;;14.00;12.70;;;16.60;69.50;;;14.16;83.68;96609.75;4970897;28;20639;-66
2022/05/10 06:20:20;;;;;;;14.75;13.30;;;16.90;69.00;;;14.33;82.21;96604.94;4971643;28;20041;-66
2022/05/10 06:22:47;;;;;;;14.40;12.90;;;17.00;67.70;;;14.50;82.04;96605.41;4970582;28;20481;-64
2022/05/10 06:25:17;;;;;;;14.65;13.13;;;17.30;67.50;;;14.68;81.80;96603.78;4970206;28;20104;-66
2022/05/10 06:27:47;;;;;;;;;;;17.60;66.70;;;14.86;80.24;96605.84;4971833;28;20541;-66
2022/05/10 06:30:13;;;;;;;14.30;12.57;;;17.70;66.60;;;14.99;81.09;96599.75;4971008;28;20002;-66
2022/05/10 06:32:39;;;;;;;16.63;12.25;;;17.90;65.70;;;15.15;79.70;96609.91;4971027;28;20117;-67
2022/05/10 06:35:05;;;;;;;13.40;12.10;;;18.10;64.50;;;15.28;79.66;96607.25;4970105;28;20423;-66
2022/05/10 06:40:17;;;;;;;13.80;12.25;;;18.50;63.90;;;15.64;78.47;96592.75;4983988;28;20238;-66
2022/05/10 06:42:43;;;;;;;17.42;11.85;;;18.80;63.50;;;15.86;79.09;96602.06;4971076;28;20037;-66
2022/05/10 06:45:11;;;;;;;15.02;11.82;;;19.10;62.90;;;16.06;77.99;96598.50;4970153;28;20095;-64
2022/05/10 06:47:38;;;;;;;14.82;11.80;;;19.30;61.80;;;16.25;77.34;96602.91;4953725;28;20073;-66
2022/05/10 06:50:05;;;;;;;13.27;11.85;;;19.60;60.90;;;16.43;76.36;96597.69;4969523;28;20485;-65
2022/05/10 06:52:30;;;;;;;13.10;11.15;;;19.80;60.70;;;16.63;75.93;96602.09;4963992;28;20042;-66
2022/05/10 06:54:57;;;;;;;12.45;11.20;;;20.00;59.80;;;16.82;75.13;96590.53;4966635;28;20080;-65
2022/05/10 06:57:22;;;;;;;14.23;11.82;;;20.20;58.50;;;16.97;74.52;96584.88;4951209;28;20590;-65
2022/05/10 06:59:48;;;;;;;12.40;11.10;;;20.20;58.40;;;17.12;74.09;96580.88;4974977;28;21750;-65
2022/05/10 07:02:14;;;;;;;12.13;10.93;;;20.60;58.40;;;17.28;74.03;96584.84;4986261;28;20129;-66
2022/05/10 07:04:40;;;;;;;13.95;11.27;;;20.70;58.00;;;17.52;74.28;96585.00;4970038;28;20156;-66
2022/05/10 07:07:05;;;;;;;12.20;10.80;;;21.10;58.00;;;17.70;73.45;96579.72;4973254;28;20073;-66
2022/05/10 07:09:31;;;;;;;12.40;10.20;;;21.40;56.10;;;17.90;72.58;96574.19;4990136;28;20030;-67
2022/05/10 07:11:57;;;;;;;12.50;10.75;;;21.60;55.50;;;18.12;71.92;96574.53;4991136;28;20161;-66
2022/05/10 07:14:23;;;;;;;15.98;14.30;;;21.90;54.80;;;18.34;71.49;96575.66;4989000;28;20038;-66
2022/05/10 07:16:48;;;;;;;12.30;11.13;;;22.10;53.90;;;18.55;70.89;96579.66;4974219;28;20038;-66
2022/05/10 07:19:14;;;;;;;10.80;9.70;;;22.40;53.10;;;18.74;69.25;96589.25;4974451;28;20575;-66
2022/05/10 07:21:40;;;;;;;11.73;10.00;;;22.60;52.40;;;18.98;69.49;96579.44;4974292;28;20117;-66
2022/05/10 07:24:06;;;;;;;9.90;9.00;;;22.80;52.60;;;19.19;68.97;96581.53;4974684;28;20037;-66
2022/05/10 07:26:32;;;;;;;17.35;9.77;;;23.00;51.50;;;19.36;67.88;96571.00;4973447;28;20104;-66
2022/05/10 07:28:57;;;;;;;12.68;9.10;;;23.10;51.60;;;19.56;67.65;96574.16;4954353;28;20529;-65
2022/05/10 07:31:23;;;;;;;9.85;8.07;;;23.30;50.80;;;19.76;66.13;96570.28;4953395;28;20145;-66
2022/05/10 07:33:49;;;;;;;8.82;7.88;;;23.50;49.80;;;20.01;65.55;96564.66;4974506;28;20050;-66
2022/05/10 07:36:24;;;;;;;9.90;8.55;;;23.80;49.60;;;20.26;65.44;96570.50;4957256;28;20044;-67
2022/05/10 07:38:50;;;;;;;11.02;8.85;;;24.10;49.00;;;20.55;65.89;96568.63;4945754;28;20553;-66
2022/05/10 07:41:18;;;;;;;9.18;8.02;;;24.50;49.50;;;20.87;64.38;96570.81;4958427;28;20045;-66
2022/05/10 07:43:44;;;;;;;10.40;7.43;;;24.90;47.00;;;21.16;63.75;96558.97;4973971;28;20034;-66
2022/05/10 07:46:10;;;;;;;10.15;6.95;;;25.10;46.50;;;21.48;62.13;96561.03;4972787;28;20034;-64
2022/05/10 07:48:36;;;;;;;7.72;6.80;;;25.50;45.10;;;21.77;61.29;96567.88;4974112;28;20030;-64
2022/05/10 07:51:02;;;;;;;6.90;6.20;;;25.60;44.50;;;22.03;59.06;96563.66;4973103;28;20027;-65
2022/05/10 07:53:28;;;;;;;8.77;6.88;;;25.70;43.70;;;22.27;59.98;96553.50;4965069;28;20125;-65
2022/05/10 07:55:54;;;;;;;7.63;6.82;;;26.10;43.90;;;22.57;58.78;96551.13;4989436;28;20046;-65
2022/05/10 07:58:20;;;;;;;7.38;6.63;;;26.40;44.00;;;22.88;57.46;96556.81;4957397;28;20047;-65
2022/05/10 08:00:46;;;;;;;8.00;6.68;;;26.60;43.00;;;23.14;57.16;96558.63;4988879;28;20034;-65
2022/05/10 08:03:15;;;;;;;8.07;5.97;;;26.90;42.20;;;23.30;54.64;96550.66;4989782;28;20053;-65
2022/05/10 08:05:41;;;;;;;11.75;6.63;;;26.80;41.90;;;23.49;54.89;96549.16;4956657;28;20045;-65
2022/05/10 08:08:07;;;;;;;7.28;6.22;;;27.00;41.00;;;23.62;53.58;96542.56;4972775;28;20132;-65
2022/05/10 08:10:33;;;;;;;6.53;5.47;;;27.10;40.90;;;23.74;54.31;96554.72;4976724;28;20456;-65
2022/05/10 08:12:59;;;;;;;6.28;5.68;;;27.10;41.80;;;23.86;52.90;96548.34;4950652;28;20060;-65
2022/05/10 08:15:25;;;;;;;10.07;5.88;;;27.50;40.90;;;24.01;52.99;96540.34;4972168;28;20033;-65
2022/05/10 08:17:52;;;;;;;6.22;5.63;;;27.70;39.70;;;24.19;52.79;96537.16;4989213;28;20033;-66
2022/05/10 08:20:18;;;;;;;7.10;5.47;;;27.90;40.80;;;24.43;52.36;96532.94;4973931;28;20497;-66
2022/05/10 08:22:45;;;;;;;7.45;5.15;;;28.30;39.50;;;24.62;51.20;96535.13;4956474;28;20046;-66
2022/05/10 08:25:12;;;;;;;8.32;5.57;;;28.30;39.50;;;24.83;50.68;96547.50;4963538;28;20445;-66
2022/05/10 08:27:37;;;;;;;6.43;5.50;;;28.50;38.00;;;24.92;50.59;96540.53;4953299;28;20564;-66
2022/05/10 08:30:04;;;;;;;8.18;5.20;;;28.40;39.20;;;25.09;49.83;96534.09;4954065;28;20129;-65
2022/05/10 08:32:30;;;;;;;6.32;4.60;;;28.60;37.80;;;25.34;48.90;96531.34;4969911;28;20035;-65
2022/05/10 08:34:55;;;;;;;6.07;4.90;;;29.10;37.20;;;25.49;48.71;96534.03;4954480;28;20044;-65
2022/05/10 08:37:21;;;;;;;8.60;4.85;;;29.10;37.90;;;25.68;48.78;96544.25;4970000;28;20121;-65
2022/05/10 08:39:47;;;;;;;7.10;5.30;;;29.20;37.80;;;25.73;47.62;96533.44;4971385;28;20490;-64
2022/05/10 08:42:26;;;;;;;11.30;4.97;;;29.10;37.00;;;25.83;45.58;96533.44;4973002;28;20424;-65
2022/05/10 08:45:03;;;;;;;5.35;4.85;;;29.10;37.70;;;25.92;45.31;96537.16;4956699;28;20461;-64
2022/05/10 08:47:28;;;;;;;5.47;4.45;;;29.10;37.40;;;25.98;46.81;96527.16;4941398;28;20398;-65
2022/05/10 08:49:59;;;;;;;6.97;4.90;;;29.30;37.70;;;26.16;46.40;96531.94;4955879;28;20042;-65
2022/05/10 08:52:31;;;;;;;5.18;4.60;;;29.60;37.60;;;26.34;45.69;96535.88;4933662;28;20034;-65
2022/05/10 08:54:56;;;;;;;13.05;11.75;;;29.70;37.70;;;26.48;47.04;96529.63;4921469;28;20042;-65
2022/05/10 08:57:49;;;;;;;16.42;14.65;;;30.00;38.40;;;26.68;44.50;96525.97;4946221;28;20049;-64
2022/05/10 09:00:53;;;;;;;5.70;4.60;;;30.10;37.00;;;26.83;44.50;96530.44;4982686;28;20517;-65
2022/05/10 09:03:26;;;;;;;5.95;4.05;;;30.30;37.20;;;27.04;42.81;96525.72;4963423;28;20414;-65
2022/05/10 09:05:52;;;;;;;6.15;4.18;;;30.70;35.00;;;27.21;44.88;96534.22;4967944;28;20042;-64
2022/05/10 09:09:04;;;;;;;5.88;4.45;;;30.80;34.90;;;27.34;41.10;96525.44;4937208;28;20165;-64
2022/05/10 09:11:39;;;;;;;4.80;3.65;;;30.90;36.40;;;27.44;42.76;96525.34;4980382;28;20099;-65
2022/05/10 09:14:05;;;;;;;6.20;3.65;;;31.10;34.90;;;27.60;43.85;96525.16;4941570;28;20040;-64
2022/05/10 09:16:31;;;;;;;6.00;3.80;;;31.30;33.80;;;27.72;42.82;96517.50;4963511;28;20057;-65
2022/05/10 09:18:57;;;;;;;6.97;4.07;;;31.40;31.90;;;27.83;41.58;96521.69;4971777;28;20034;-65
2022/05/10 09:21:27;;;;;;;9.75;4.38;;;31.50;31.70;;;27.94;39.33;96515.06;4972615;28;20034;-65
2022/05/10 09:24:49;;;;;;;4.05;3.20;;;31.70;31.10;;;28.16;39.65;96513.72;4971895;28;20034;-65
2022/05/10 09:27:15;;;;;;;4.55;3.50;;;32.00;32.30;;;28.36;41.31;96514.28;4914388;29;20059;-65
2022/05/10 09:29:45;;;;;;;3.97;3.50;;;32.30;32.60;;;28.55;38.08;96516.97;4922124;28;20189;-65
2022/05/10 09:35:23;;;;;;;7.03;3.92;;;32.80;30.20;;;28.81;38.85;96511.97;5000004;28;20113;-65
2022/05/10 09:37:53;;;;;;;3.38;2.88;;;32.90;30.60;;;29.01;36.62;96512.78;4955256;28;20072;-64
2022/05/10 09:40:40;;;;;;;8.13;3.35;;;33.30;28.50;;;29.20;36.33;96506.22;4987865;28;20052;-64
2022/05/10 09:43:21;;;;;;;3.78;2.95;;;33.50;28.80;;;29.34;36.14;96505.41;4989124;28;20029;-65
2022/05/10 09:46:08;;;;;;;5.00;3.50;;;33.50;28.80;;;29.46;35.64;96506.56;4986051;28;20145;-64
2022/05/10 09:48:34;;;;;;;4.65;2.80;;;33.70;28.50;;;29.64;37.31;96514.91;4956911;28;20042;-65
2022/05/10 09:51:00;;;;;;;4.88;3.05;;;34.00;28.30;;;29.76;37.03;96507.88;4956730;28;20041;-64
2022/05/10 09:53:31;;;;;;;4.63;3.03;;;34.20;27.60;;;29.94;34.93;96503.47;4939833;28;20040;-65
2022/05/10 09:56:32;;;;;;;5.03;2.63;;;34.50;27.50;;;30.19;33.09;96496.72;4938711;28;20355;-64
2022/05/10 09:59:32;;;;;;;5.70;3.05;;;34.80;26.70;;;30.38;33.50;96508.25;4961119;28;20038;-65
2022/05/10 10:01:59;;;;;;;3.38;2.60;;;34.90;25.80;;;30.63;35.99;96492.50;4940735;28;20066;-65
2022/05/10 10:04:40;;;;;;;3.90;2.70;;;35.40;25.70;;;30.94;32.66;96501.50;4952077;28;20447;-65
2022/05/10 10:07:16;;;;;;;3.80;2.80;;;35.70;25.30;;;31.13;32.14;96489.63;4969632;28;20041;-65
2022/05/10 10:09:48;;;;;;;4.07;2.70;;;35.80;24.50;;;31.29;31.68;96499.84;4956287;28;20034;-65
2022/05/10 10:12:37;;;;;;;3.22;2.30;;;36.00;24.60;;;31.62;31.88;96483.97;4987355;28;20395;-65
2022/05/10 10:15:24;;;;;;;4.00;3.10;;;36.60;24.10;;;31.84;31.52;96488.56;4966661;28;20073;-66
2022/05/10 10:17:55;;;;;;;3.72;2.20;;;36.60;23.60;;;32.11;31.71;96492.94;4956288;28;20300;-66
2022/05/10 10:20:35;;;;;;;3.78;2.80;;;37.10;24.10;;;32.45;30.80;96481.34;4956423;28;20030;-67
2022/05/10 10:23:04;;;;;;;;;;;37.60;23.00;;;32.68;29.30;96479.25;4974490;28;20506;-66
2022/05/10 10:25:39;;;;;;;4.15;2.72;;;37.70;21.70;;;32.98;29.58;96482.13;4970743;28;20455;-66
2022/05/10 10:28:26;;;;;;;3.53;2.53;;;38.00;21.40;;;33.34;28.42;96479.81;4971013;28;20049;-67
2022/05/10 10:30:59;;;;;;;3.40;2.30;;;38.50;21.50;;;33.67;30.79;96473.72;4955645;28;20501;-66
2022/05/10 10:34:03;;;;;;;3.35;2.70;;;38.90;22.50;;;34.08;29.24;96470.31;4955358;28;20034;-66
2022/05/10 10:36:35;;;;;;;3.20;2.42;;;39.20;22.10;;;34.44;28.82;96464.31;4985773;28;20049;-66
2022/05/10 10:39:19;;;;;;;2.58;2.35;;;39.50;21.10;;;34.76;27.74;96464.69;4957043;28;20378;-66
2022/05/10 10:41:55;;;;;;;3.00;2.50;;;39.80;21.20;;;35.05;29.23;96464.56;4970949;28;20104;-66
2022/05/10 10:44:26;;;;;;;3.38;2.28;;;40.00;20.00;;;35.30;26.22;96460.75;4967466;28;20498;-66
2022/05/10 10:47:27;;;;;;;3.35;2.30;;;40.00;19.60;;;35.52;25.08;96450.53;4971467;28;20034;-67